createdAt,value
2018-05-03T00:00:20.878Z,100803.02
2018-05-03T00:02:49.089Z,100802.05
2018-05-03T00:05:17.847Z,100802.48
2018-05-03T00:07:46.017Z,100797.75
2018-05-03T00:10:14.221Z,100806.17
2018-05-03T00:12:43.038Z,100804.94
2018-05-03T00:15:11.589Z,100795.72
2018-05-03T00:17:40.198Z,100800.25
2018-05-03T00:20:09.405Z,100797.94
2018-05-03T00:22:37.647Z,100809.73
2018-05-03T00:25:05.888Z,100812.19
2018-05-03T00:27:34.512Z,100807.34
2018-05-03T00:30:02.716Z,100798.89
2018-05-03T00:32:31.073Z,100807.19
2018-05-03T00:34:59.752Z,100814.76
2018-05-03T00:37:27.963Z,100811.83
2018-05-03T00:39:56.689Z,100816.48
2018-05-03T00:42:25.230Z,100814.11
2018-05-03T00:44:54.097Z,100821.14
2018-05-03T00:47:22.437Z,100819.84
2018-05-03T00:49:50.863Z,100821.53
2018-05-03T00:52:19.503Z,100816.01
2018-05-03T00:54:48.563Z,100824.39
2018-05-03T00:57:16.772Z,100825.66
2018-05-03T00:59:45.375Z,100815.73
2018-05-03T01:02:13.652Z,100830.16
2018-05-03T01:04:41.805Z,100831.09
2018-05-03T01:07:10.556Z,100837.05
2018-05-03T01:09:38.819Z,100835.48
2018-05-03T01:12:30.529Z,100831.07
2018-05-03T01:15:02.428Z,100837.48
2018-05-03T01:17:31.130Z,100835.81
2018-05-03T01:19:59.357Z,100831.70
2018-05-03T01:22:27.584Z,100835.33
2018-05-03T01:24:56.293Z,100838.15
2018-05-03T01:27:24.622Z,100832.57
2018-05-03T01:29:52.813Z,100836.20
2018-05-03T01:32:21.372Z,100835.59
2018-05-03T01:37:52.178Z,100846.28
2018-05-03T01:40:20.583Z,100833.92
2018-05-03T01:42:48.806Z,100842.45
2018-05-03T01:45:17.004Z,100857.92
2018-05-03T01:47:45.816Z,100856.45
2018-05-03T01:50:14.052Z,100867.63
2018-05-03T01:52:42.253Z,100865.98
2018-05-03T01:55:11.000Z,100858.84
2018-05-03T01:57:39.199Z,100858.98
2018-05-03T02:00:07.393Z,100866.12
2018-05-03T02:02:36.119Z,100870.47
2018-05-03T02:05:04.296Z,100880.72
2018-05-03T02:07:32.684Z,100882.02
2018-05-03T02:10:01.368Z,100881.92
2018-05-03T02:12:29.555Z,100883.53
2018-05-03T02:14:57.953Z,100884.42
2018-05-03T02:17:26.473Z,100885.31
2018-05-03T02:19:54.711Z,100887.56
2018-05-03T02:22:23.059Z,100891.48
2018-05-03T02:24:51.736Z,100898.70
2018-05-03T02:27:19.947Z,100902.25
2018-05-03T02:29:48.175Z,100911.09
2018-05-03T02:32:16.791Z,100910.19
2018-05-03T02:34:44.998Z,100916.35
2018-05-03T02:37:13.318Z,100926.62
2018-05-03T02:39:42.100Z,100926.94
2018-05-03T02:42:10.424Z,100927.16
2018-05-03T02:44:39.219Z,100934.91
2018-05-03T02:47:07.832Z,100937.66
2018-05-03T02:49:36.057Z,100941.07
2018-05-03T02:52:04.360Z,100938.77
2018-05-03T02:54:33.015Z,100941.14
2018-05-03T02:57:13.078Z,100939.91
2018-05-03T02:59:53.107Z,100946.61
2018-05-03T03:02:27.576Z,100955.16
2018-05-03T03:05:13.119Z,100962.01
2018-05-03T03:11:24.492Z,100960.48
2018-05-03T03:14:04.493Z,100967.28
2018-05-03T03:16:50.844Z,100970.23
2018-05-03T03:19:31.299Z,100977.75
2018-05-03T03:22:17.125Z,100986.49
2018-05-03T03:24:48.267Z,100979.34
2018-05-03T03:27:36.742Z,100985.92
2018-05-03T03:30:17.209Z,100989.94
2018-05-03T03:32:57.239Z,100990.37
2018-05-03T03:38:52.588Z,101010.00
2018-05-03T03:41:32.595Z,101015.19
2018-05-03T03:44:12.574Z,101018.38
2018-05-03T03:46:41.287Z,101017.38
2018-05-03T03:49:09.899Z,101018.17
2018-05-03T03:51:38.088Z,101015.76
2018-05-03T03:54:06.277Z,101023.71
2018-05-03T03:56:34.972Z,101031.55
2018-05-03T03:59:03.216Z,101033.55
2018-05-03T04:01:31.395Z,101030.19
2018-05-03T04:04:00.094Z,101037.01
2018-05-03T04:06:28.310Z,101044.11
2018-05-03T04:08:56.539Z,101052.11
2018-05-03T04:11:25.376Z,101051.12
2018-05-03T04:13:53.609Z,101054.84
2018-05-03T04:16:21.789Z,101055.88
2018-05-03T04:22:09.741Z,101055.36
2018-05-03T04:24:50.439Z,101067.89
2018-05-03T04:27:18.772Z,101067.64
2018-05-03T04:29:46.966Z,101068.75
2018-05-03T04:32:15.618Z,101074.87
2018-05-03T04:34:43.830Z,101075.13
2018-05-03T04:37:12.265Z,101076.92
2018-05-03T04:39:40.821Z,101074.32
2018-05-03T04:42:09.037Z,101071.75
2018-05-03T04:44:37.415Z,101073.20
2018-05-03T04:47:06.073Z,101082.16
2018-05-03T04:49:34.267Z,101084.70
2018-05-03T04:52:02.966Z,101097.53
2018-05-03T04:54:31.615Z,101094.17
2018-05-03T04:56:59.808Z,101101.50
2018-05-03T04:59:27.967Z,101111.48
2018-05-03T05:01:56.406Z,101118.66
2018-05-03T05:04:24.644Z,101119.61
2018-05-03T05:06:52.985Z,101127.23
2018-05-03T05:09:21.595Z,101127.24
2018-05-03T05:11:49.801Z,101142.78
2018-05-03T05:14:18.198Z,101133.27
2018-05-03T05:16:46.763Z,101139.13
2018-05-03T05:19:14.957Z,101146.66
2018-05-03T05:21:44.076Z,101154.22
2018-05-03T05:24:12.736Z,101155.02
2018-05-03T05:26:41.468Z,101165.47
2018-05-03T05:29:09.688Z,101168.47
2018-05-03T05:31:37.876Z,101180.13
2018-05-03T05:34:06.598Z,101179.63
2018-05-03T05:36:34.804Z,101181.55
2018-05-03T05:39:03.106Z,101181.73
2018-05-03T05:41:31.650Z,101190.19
2018-05-03T05:44:00.781Z,101186.13
2018-05-03T05:46:28.969Z,101193.81
2018-05-03T05:48:57.980Z,101192.55
2018-05-03T05:51:26.877Z,101199.67
2018-05-03T05:53:55.089Z,101196.40
2018-05-03T05:56:23.333Z,101197.52
2018-05-03T05:58:52.026Z,101201.72
2018-05-03T06:01:20.229Z,101204.36
2018-05-03T06:03:48.442Z,101205.75
2018-05-03T06:06:17.200Z,101204.66
2018-05-03T06:08:45.412Z,101209.14
2018-05-03T06:11:13.631Z,101206.31
2018-05-03T06:13:42.195Z,101209.45
2018-05-03T06:16:10.381Z,101220.98
2018-05-03T06:18:38.580Z,101225.89
2018-05-03T06:21:07.342Z,101230.95
2018-05-03T06:23:35.542Z,101230.34
2018-05-03T06:26:03.813Z,101236.31
2018-05-03T06:28:32.445Z,101244.27
2018-05-03T06:31:00.651Z,101245.81
2018-05-03T06:33:28.875Z,101250.30
2018-05-03T06:35:57.587Z,101252.66
2018-05-03T06:38:25.792Z,101255.62
2018-05-03T06:40:54.076Z,101262.02
2018-05-03T06:43:22.817Z,101259.45
2018-05-03T06:45:50.990Z,101254.83
2018-05-03T06:48:19.211Z,101257.26
2018-05-03T06:50:47.929Z,101258.79
2018-05-03T06:53:16.132Z,101261.75
2018-05-03T06:55:44.377Z,101259.62
2018-05-03T06:58:13.078Z,101261.97
2018-05-03T07:00:41.280Z,101260.09
2018-05-03T07:03:09.498Z,101267.22
2018-05-03T07:05:37.731Z,101276.20
2018-05-03T07:08:05.933Z,101271.81
2018-05-03T07:10:34.355Z,101275.78
2018-05-03T07:13:02.588Z,101272.39
2018-05-03T07:15:30.797Z,101274.81
2018-05-03T07:17:59.236Z,101275.79
2018-05-03T07:20:27.497Z,101271.13
2018-05-03T07:22:55.694Z,101276.64
2018-05-03T07:25:24.348Z,101279.61
2018-05-03T07:27:52.551Z,101280.47
2018-05-03T07:30:20.900Z,101288.34
2018-05-03T07:32:49.524Z,101293.14
2018-05-03T07:35:17.808Z,101290.69
2018-05-03T07:37:46.022Z,101298.78
2018-05-03T07:40:14.712Z,101295.86
2018-05-03T07:42:44.118Z,101307.84
2018-05-03T07:45:12.296Z,101312.11
2018-05-03T07:47:40.508Z,101311.87
2018-05-03T07:50:08.751Z,101312.91
2018-05-03T07:52:36.944Z,101318.06
2018-05-03T07:55:05.341Z,101323.79
2018-05-03T07:57:33.535Z,101325.20
2018-05-03T08:00:01.734Z,101320.67
2018-05-03T08:02:31.180Z,101325.52
2018-05-03T08:04:59.630Z,101333.62
2018-05-03T08:07:27.856Z,101340.14
2018-05-03T08:09:56.055Z,101341.16
2018-05-03T08:12:24.704Z,101344.80
2018-05-03T08:14:52.908Z,101347.96
2018-05-03T08:17:21.248Z,101350.42
2018-05-03T08:19:50.046Z,101350.00
2018-05-03T08:22:18.295Z,101353.72
2018-05-03T08:24:46.483Z,101352.45
2018-05-03T08:27:15.074Z,101357.31
2018-05-03T08:29:43.277Z,101361.58
2018-05-03T08:32:11.492Z,101362.83
2018-05-03T08:34:39.735Z,101365.98
2018-05-03T08:37:07.936Z,101369.95
2018-05-03T08:39:36.311Z,101368.36
2018-05-03T08:42:04.593Z,101375.40
2018-05-03T08:44:32.793Z,101384.87
2018-05-03T08:47:01.208Z,101379.20
2018-05-03T08:49:29.422Z,101385.83
2018-05-03T08:51:57.817Z,101389.00
2018-05-03T08:54:26.246Z,101394.95
2018-05-03T08:56:54.462Z,101393.91
2018-05-03T08:59:22.881Z,101392.76
2018-05-03T09:01:51.626Z,101398.39
2018-05-03T09:04:19.780Z,101396.00
2018-05-03T09:06:48.140Z,101395.95
2018-05-03T09:09:16.650Z,101386.41
2018-05-03T09:11:44.852Z,101398.42
2018-05-03T09:14:13.287Z,101394.22
2018-05-03T09:16:41.891Z,101396.97
2018-05-03T09:19:10.119Z,101395.53
2018-05-03T09:21:38.449Z,101399.55
2018-05-03T09:24:07.087Z,101398.48
2018-05-03T09:26:35.287Z,101397.35
2018-05-03T09:29:03.787Z,101404.36
2018-05-03T09:31:32.319Z,101404.45
2018-05-03T09:34:00.536Z,101406.45
2018-05-03T09:36:28.852Z,101409.41
2018-05-03T09:38:57.463Z,101408.33
2018-05-03T09:41:25.678Z,101404.30
2018-05-03T09:43:54.006Z,101408.77
2018-05-03T09:46:22.699Z,101410.90
2018-05-03T09:48:50.917Z,101407.79
2018-05-03T09:51:19.165Z,101413.39
2018-05-03T09:53:47.865Z,101405.48
2018-05-03T09:56:16.072Z,101409.03
2018-05-03T09:58:44.359Z,101411.83
2018-05-03T10:01:12.989Z,101405.32
2018-05-03T10:03:41.217Z,101406.52
2018-05-03T10:06:09.605Z,101407.92
2018-05-03T10:08:38.097Z,101408.95
2018-05-03T10:11:06.284Z,101407.52
2018-05-03T10:13:34.658Z,101412.99
2018-05-03T10:16:03.358Z,101419.09
2018-05-03T10:18:31.546Z,101419.34
2018-05-03T10:20:59.800Z,101416.28
2018-05-03T10:23:28.456Z,101411.98
2018-05-03T10:25:56.665Z,101415.76
2018-05-03T10:28:25.020Z,101422.48
2018-05-03T10:30:53.708Z,101418.30
2018-05-03T10:33:21.959Z,101418.20
2018-05-03T10:35:50.240Z,101417.56
2018-05-03T10:38:18.755Z,101419.30
2018-05-03T10:40:46.950Z,101415.66
2018-05-03T10:43:15.367Z,101414.91
2018-05-03T10:45:44.006Z,101422.16
2018-05-03T10:48:12.238Z,101412.57
2018-05-03T10:50:40.548Z,101411.40
2018-05-03T10:53:09.130Z,101411.69
2018-05-03T10:55:37.330Z,101405.02
2018-05-03T10:58:05.732Z,101407.70
2018-05-03T11:00:34.397Z,101409.44
2018-05-03T11:03:02.641Z,101414.92
2018-05-03T11:05:30.994Z,101409.70
2018-05-03T11:07:59.512Z,101409.11
2018-05-03T11:10:27.712Z,101415.49
2018-05-03T11:12:56.038Z,101421.65
2018-05-03T11:15:24.787Z,101413.70
2018-05-03T11:17:53.010Z,101416.00
2018-05-03T11:20:21.307Z,101410.27
2018-05-03T11:22:49.968Z,101408.72
2018-05-03T11:25:18.186Z,101412.81
2018-05-03T11:27:46.503Z,101416.37
2018-05-03T11:30:15.108Z,101407.25
2018-05-03T11:32:43.286Z,101410.56
2018-05-03T11:35:11.755Z,101412.89
2018-05-03T11:37:40.265Z,101406.91
2018-05-03T11:40:08.517Z,101413.52
2018-05-03T11:42:36.893Z,101416.23
2018-05-03T11:45:05.409Z,101419.08
2018-05-03T11:47:33.676Z,101416.43
2018-05-03T11:50:01.889Z,101414.77
2018-05-03T11:52:30.628Z,101417.28
2018-05-03T11:54:58.807Z,101414.89
2018-05-03T11:57:27.178Z,101411.58
2018-05-03T11:59:55.757Z,101414.80
2018-05-03T12:02:24.013Z,101411.98
2018-05-03T12:04:52.238Z,101415.72
2018-05-03T12:07:20.931Z,101421.62
2018-05-03T12:09:49.126Z,101424.19
2018-05-03T12:12:17.440Z,101427.09
2018-05-03T12:14:46.130Z,101431.15
2018-05-03T12:17:14.349Z,101431.64
2018-05-03T12:19:42.555Z,101428.88
2018-05-03T12:22:11.373Z,101429.52
2018-05-03T12:24:39.593Z,101444.23
2018-05-03T12:27:07.800Z,101436.20
2018-05-03T12:29:36.534Z,101438.22
2018-05-03T12:32:04.712Z,101431.47
2018-05-03T12:34:33.166Z,101439.27
2018-05-03T12:37:01.653Z,101446.09
2018-05-03T12:39:29.818Z,101436.89
2018-05-03T12:41:58.015Z,101436.10
2018-05-03T12:44:26.795Z,101443.47
2018-05-03T12:46:54.995Z,101443.65
2018-05-03T12:49:23.237Z,101448.30
2018-05-03T12:51:52.053Z,101436.53
2018-05-03T12:54:20.226Z,101439.14
2018-05-03T12:56:48.407Z,101442.39
2018-05-03T12:59:17.011Z,101442.05
2018-05-03T13:01:45.178Z,101435.34
2018-05-03T13:04:13.713Z,101433.74
2018-05-03T13:06:42.341Z,101431.59
2018-05-03T13:09:10.536Z,101429.09
2018-05-03T13:11:38.739Z,101440.51
2018-05-03T13:14:07.361Z,101439.59
2018-05-03T13:16:35.596Z,101440.47
2018-05-03T13:19:03.821Z,101431.02
2018-05-03T13:21:32.100Z,101435.84
2018-05-03T13:24:00.305Z,101434.52
2018-05-03T13:26:28.784Z,101439.52
2018-05-03T13:28:57.001Z,101438.22
2018-05-03T13:31:25.184Z,101434.38
2018-05-03T13:33:53.803Z,101438.32
2018-05-03T13:36:22.004Z,101433.16
2018-05-03T13:38:50.204Z,101438.03
2018-05-03T13:41:18.571Z,101429.66
2018-05-03T13:43:46.803Z,101434.55
2018-05-03T13:46:15.183Z,101434.67
2018-05-03T13:48:43.779Z,101432.78
2018-05-03T13:51:11.992Z,101436.17
2018-05-03T13:53:40.375Z,101432.04
2018-05-03T13:56:08.587Z,101432.89
2018-05-03T13:58:36.782Z,101429.03
2018-05-03T14:01:05.006Z,101426.49
2018-05-03T14:03:33.745Z,101434.14
2018-05-03T14:06:01.958Z,101427.18
2018-05-03T14:08:30.167Z,101427.10
2018-05-03T14:10:58.827Z,101422.86
2018-05-03T14:13:27.025Z,101425.66
2018-05-03T14:15:55.414Z,101422.98
2018-05-03T14:18:24.093Z,101426.57
2018-05-03T14:20:52.353Z,101431.81
2018-05-03T14:23:20.536Z,101420.18
2018-05-03T14:25:49.257Z,101422.86
2018-05-03T14:28:17.428Z,101427.30
2018-05-03T14:30:45.708Z,101428.86
2018-05-03T14:33:14.461Z,101429.56
2018-05-03T14:35:42.647Z,101427.53
2018-05-03T14:38:10.924Z,101422.55
2018-05-03T14:40:39.580Z,101418.20
2018-05-03T14:43:07.776Z,101422.95
2018-05-03T14:45:36.033Z,101419.55
2018-05-03T14:48:04.271Z,101419.36
2018-05-03T14:53:07.007Z,101414.97
2018-05-03T14:55:35.488Z,101419.06
2018-05-03T14:58:03.698Z,101416.36
2018-05-03T15:00:32.158Z,101414.30
2018-05-03T15:03:00.787Z,101424.18
2018-05-03T15:05:29.005Z,101425.85
2018-05-03T15:07:57.346Z,101420.61
2018-05-03T15:10:26.026Z,101418.81
2018-05-03T15:12:54.509Z,101416.40
2018-05-03T15:15:22.709Z,101424.00
2018-05-03T15:17:51.044Z,101421.57
2018-05-03T15:20:19.269Z,101421.67
2018-05-03T15:22:47.671Z,101421.64
2018-05-03T15:25:16.308Z,101421.88
2018-05-03T15:27:44.518Z,101417.47
2018-05-03T15:30:13.008Z,101420.60
2018-05-03T15:32:41.522Z,101418.48
2018-05-03T15:35:09.774Z,101412.72
2018-05-03T15:37:38.207Z,101415.94
2018-05-03T15:40:06.509Z,101416.84
2018-05-03T15:42:34.690Z,101415.58
2018-05-03T15:45:02.911Z,101418.03
2018-05-03T15:47:31.754Z,101422.06
2018-05-03T15:49:59.987Z,101419.83
2018-05-03T15:52:28.202Z,101422.17
2018-05-03T15:54:56.894Z,101421.95
2018-05-03T15:57:25.079Z,101423.25
2018-05-03T15:59:53.294Z,101423.23
2018-05-03T16:02:22.102Z,101422.59
2018-05-03T16:04:50.307Z,101426.39
2018-05-03T16:07:18.492Z,101426.25
2018-05-03T16:09:47.206Z,101428.16
2018-05-03T16:12:15.382Z,101423.80
2018-05-03T16:14:43.636Z,101424.60
2018-05-03T16:17:12.434Z,101425.80
2018-05-03T16:19:40.619Z,101427.60
2018-05-03T16:22:08.806Z,101428.08
2018-05-03T16:24:37.499Z,101425.84
2018-05-03T16:27:05.695Z,101437.33
2018-05-03T16:29:33.891Z,101425.49
2018-05-03T16:32:02.510Z,101433.94
2018-05-03T16:34:30.765Z,101433.81
2018-05-03T16:36:58.931Z,101428.73
2018-05-03T16:39:27.562Z,101429.86
2018-05-03T16:41:55.741Z,101432.63
2018-05-03T16:44:23.964Z,101434.33
2018-05-03T16:46:52.643Z,101440.95
2018-05-03T16:49:20.824Z,101437.59
2018-05-03T16:51:49.024Z,101442.05
2018-05-03T16:54:17.582Z,101441.41
2018-05-03T16:56:45.755Z,101436.59
2018-05-03T16:59:14.305Z,101440.48
2018-05-03T17:01:42.458Z,101442.45
2018-05-03T17:04:10.690Z,101447.17
2018-05-03T17:06:39.407Z,101446.51
2018-05-03T17:09:07.657Z,101450.95
2018-05-03T17:11:35.853Z,101450.16
2018-05-03T17:14:04.421Z,101453.58
2018-05-03T17:16:32.657Z,101465.20
2018-05-03T17:19:01.150Z,101461.88
2018-05-03T17:21:29.628Z,101458.64
2018-05-03T17:23:57.848Z,101461.75
2018-05-03T17:26:26.125Z,101462.58
2018-05-03T17:28:54.702Z,101469.16
2018-05-03T17:31:22.932Z,101472.40
2018-05-03T17:33:51.509Z,101473.13
2018-05-03T17:36:20.046Z,101470.70
2018-05-03T17:38:48.242Z,101473.59
2018-05-03T17:41:16.648Z,101470.88
2018-05-03T17:43:45.262Z,101472.58
2018-05-03T17:46:13.517Z,101481.42
2018-05-03T17:48:41.707Z,101484.37
2018-05-03T17:51:10.440Z,101485.78
2018-05-03T17:53:38.600Z,101490.52
2018-05-03T17:56:06.832Z,101494.27
2018-05-03T17:58:35.453Z,101492.52
2018-05-03T18:01:03.649Z,101493.11
2018-05-03T18:03:31.964Z,101499.88
2018-05-03T18:06:00.516Z,101501.73
2018-05-03T18:08:28.747Z,101512.08
2018-05-03T18:10:57.172Z,101503.16
2018-05-03T18:13:25.795Z,101502.59
2018-05-03T18:15:53.990Z,101514.75
2018-05-03T18:18:22.442Z,101518.80
2018-05-03T18:20:51.054Z,101521.47
2018-05-03T18:23:19.240Z,101526.47
2018-05-03T18:25:47.538Z,101524.27
2018-05-03T18:28:15.915Z,101528.50
2018-05-03T18:30:44.149Z,101528.63
2018-05-03T18:33:12.335Z,101532.50
2018-05-03T18:35:41.135Z,101535.71
2018-05-03T18:38:09.394Z,101540.63
2018-05-03T18:40:37.515Z,101537.61
2018-05-03T18:43:05.774Z,101542.91
2018-05-03T18:45:33.945Z,101547.72
2018-05-03T18:48:02.832Z,101553.97
2018-05-03T18:50:31.011Z,101557.31
2018-05-03T18:52:59.381Z,101561.68
2018-05-03T18:55:28.109Z,101559.36
2018-05-03T18:57:56.325Z,101566.38
2018-05-03T19:00:25.566Z,101573.95
2018-05-03T19:02:54.401Z,101590.88
2018-05-03T19:05:23.186Z,101592.64
2018-05-03T19:07:51.389Z,101592.94
2018-05-03T19:10:19.636Z,101592.27
2018-05-03T19:12:48.343Z,101594.14
2018-05-03T19:15:16.564Z,101593.97
2018-05-03T19:17:44.790Z,101591.02
2018-05-03T19:20:13.561Z,101594.05
2018-05-03T19:22:41.736Z,101594.01
2018-05-03T19:25:09.973Z,101602.41
2018-05-03T19:27:38.722Z,101610.83
2018-05-03T19:30:06.917Z,101613.61
2018-05-03T19:32:35.137Z,101629.61
2018-05-03T19:35:03.802Z,101634.72
2018-05-03T19:37:31.978Z,101634.61
2018-05-03T19:40:00.341Z,101641.90
2018-05-03T19:42:29.057Z,101645.53
2018-05-03T19:44:57.264Z,101639.30
2018-05-03T19:47:25.486Z,101636.05
2018-05-03T19:49:54.329Z,101636.55
2018-05-03T19:52:22.532Z,101644.39
2018-05-03T19:54:51.412Z,101643.84
2018-05-03T19:57:20.217Z,101639.52
2018-05-03T19:59:48.720Z,101646.34
2018-05-03T20:02:16.937Z,101644.97
2018-05-03T20:04:45.546Z,101645.72
2018-05-03T20:07:13.782Z,101648.69
2018-05-03T20:09:41.972Z,101656.32
2018-05-03T20:12:10.791Z,101659.30
2018-05-03T20:14:39.001Z,101661.19
2018-05-03T20:17:07.180Z,101661.11
2018-05-03T20:19:35.948Z,101666.14
2018-05-03T20:22:04.175Z,101664.16
2018-05-03T20:24:32.352Z,101669.59
2018-05-03T20:27:00.966Z,101674.80
2018-05-03T20:29:29.225Z,101675.77
2018-05-03T20:31:57.500Z,101673.55
2018-05-03T20:34:26.114Z,101673.27
2018-05-03T20:36:54.341Z,101670.16
2018-05-03T20:39:22.548Z,101673.62
2018-05-03T20:41:51.903Z,101671.71
2018-05-03T20:44:20.280Z,101673.78
2018-05-03T20:46:48.472Z,101669.57
2018-05-03T20:49:16.709Z,101669.20
2018-05-03T20:51:45.529Z,101659.27
2018-05-03T20:54:13.714Z,101672.53
2018-05-03T20:56:41.889Z,101675.71
2018-05-03T20:59:10.661Z,101668.34
2018-05-03T21:01:38.865Z,101678.05
2018-05-03T21:04:07.070Z,101677.09
2018-05-03T21:06:35.761Z,101670.59
2018-05-03T21:09:03.952Z,101677.16
2018-05-03T21:11:32.168Z,101674.78
2018-05-03T21:14:00.957Z,101670.50
2018-05-03T21:16:29.150Z,101668.52
2018-05-03T21:18:57.342Z,101677.48
2018-05-03T21:21:26.034Z,101672.44
2018-05-03T21:23:54.234Z,101676.05
2018-05-03T21:26:22.455Z,101673.02
2018-05-03T21:28:51.283Z,101678.09
2018-05-03T21:31:19.467Z,101673.93
2018-05-03T21:33:47.657Z,101672.75
2018-05-03T21:36:16.337Z,101678.21
2018-05-03T21:38:44.508Z,101678.26
2018-05-03T21:41:12.772Z,101677.52
2018-05-03T21:43:41.471Z,101682.16
2018-05-03T21:46:09.650Z,101675.59
2018-05-03T21:48:37.922Z,101682.84
2018-05-03T21:51:06.677Z,101685.89
2018-05-03T21:53:34.877Z,101692.71
2018-05-03T21:56:03.128Z,101699.27
2018-05-03T21:58:31.943Z,101702.64
2018-05-03T22:01:00.166Z,101705.29
2018-05-03T22:03:45.837Z,101703.66
2018-05-03T22:06:14.077Z,101704.17
2018-05-03T22:08:42.718Z,101707.70
2018-05-03T22:11:10.895Z,101705.30
2018-05-03T22:13:39.326Z,101715.20
2018-05-03T22:16:07.964Z,101705.55
2018-05-03T22:18:36.185Z,101698.69
2018-05-03T22:21:04.391Z,101707.53
2018-05-03T22:23:33.194Z,101708.22
2018-05-03T22:26:01.369Z,101704.25
2018-05-03T22:28:29.574Z,101699.28
2018-05-03T22:30:58.184Z,101690.70
2018-05-03T22:33:26.392Z,101700.73
2018-05-03T22:35:54.770Z,101696.51
2018-05-03T22:38:23.470Z,101694.78
2018-05-03T22:40:51.715Z,101694.28
2018-05-03T22:43:19.978Z,101692.53
2018-05-03T22:45:48.489Z,101691.75
2018-05-03T22:48:16.702Z,101692.66
2018-05-03T22:50:45.057Z,101696.07
2018-05-03T22:53:13.635Z,101694.36
2018-05-03T22:55:41.800Z,101703.26
2018-05-03T22:58:10.143Z,101696.01
2018-05-03T23:00:38.738Z,101698.76
2018-05-03T23:03:06.916Z,101698.38
2018-05-03T23:05:35.284Z,101699.02
2018-05-03T23:08:03.954Z,101701.38
2018-05-03T23:10:32.139Z,101703.59
2018-05-03T23:13:00.442Z,101701.34
2018-05-03T23:15:29.081Z,101707.11
2018-05-03T23:17:57.274Z,101708.63
2018-05-03T23:20:25.576Z,101706.97
2018-05-03T23:22:54.302Z,101700.80
2018-05-03T23:25:22.476Z,101707.31
2018-05-03T23:27:50.892Z,101703.45
2018-05-03T23:30:19.429Z,101706.22
2018-05-03T23:32:47.613Z,101704.58
2018-05-03T23:35:16.029Z,101702.43
2018-05-03T23:37:44.731Z,101701.99
2018-05-03T23:40:12.942Z,101701.34
2018-05-03T23:42:41.159Z,101702.16
2018-05-03T23:45:09.833Z,101702.22
2018-05-03T23:47:38.022Z,101707.70
2018-05-03T23:50:06.253Z,101708.78
2018-05-03T23:52:34.963Z,101711.03
2018-05-03T23:55:03.148Z,101709.06
2018-05-03T23:57:31.395Z,101704.72
2018-05-03T23:59:59.942Z,101707.78
